createdAt,value
2023-03-05T00:02:22.098Z,-2.40
2023-03-05T00:04:53.918Z,-2.40
2023-03-05T00:07:25.909Z,-2.40
2023-03-05T00:10:02.024Z,-2.40
2023-03-05T00:12:33.949Z,-2.40
2023-03-05T00:15:06.052Z,-2.40
2023-03-05T00:17:38.007Z,-2.40
2023-03-05T00:20:10.093Z,-2.40
2023-03-05T00:22:41.929Z,-2.50
2023-03-05T00:25:13.816Z,-2.50
2023-03-05T00:27:45.878Z,-2.60
2023-03-05T00:30:17.699Z,-2.60
2023-03-05T00:32:49.563Z,-2.60
2023-03-05T00:35:21.431Z,-2.70
2023-03-05T00:37:56.092Z,-2.70
2023-03-05T00:40:27.909Z,-2.70
2023-03-05T00:42:59.723Z,-2.70
2023-03-05T00:45:31.580Z,-2.70
2023-03-05T00:48:03.823Z,-2.50
2023-03-05T00:50:35.606Z,-2.40
2023-03-05T00:53:07.449Z,-2.30
2023-03-05T00:55:39.231Z,-2.20
2023-03-05T00:58:11.082Z,-2.10
2023-03-05T01:00:42.933Z,-2.10
2023-03-05T01:03:14.814Z,-2.00
2023-03-05T01:05:46.634Z,-2.00
2023-03-05T01:08:18.500Z,-2.00
2023-03-05T01:10:50.308Z,-2.00
2023-03-05T01:13:22.286Z,-1.90
2023-03-05T01:15:54.110Z,-1.90
2023-03-05T01:18:25.986Z,-1.90
2023-03-05T01:20:57.862Z,-2.00
2023-03-05T01:23:29.755Z,-2.00
2023-03-05T01:26:01.678Z,-2.00
2023-03-05T01:28:33.628Z,-2.00
2023-03-05T01:31:14.007Z,-2.10
2023-03-05T01:33:45.924Z,-2.20
2023-03-05T01:36:17.733Z,-2.20
2023-03-05T01:38:49.545Z,-2.30
2023-03-05T01:41:21.562Z,-2.30
2023-03-05T01:43:53.480Z,-2.30
2023-03-05T01:46:31.593Z,-2.40
2023-03-05T01:49:09.592Z,-2.50
2023-03-05T01:51:50.644Z,-2.50
2023-03-05T01:54:24.962Z,-2.60
2023-03-05T01:56:57.154Z,-2.60
2023-03-05T01:59:29.143Z,-2.70
2023-03-05T02:02:01.057Z,-2.70
2023-03-05T02:04:39.329Z,-2.70
2023-03-05T02:07:11.608Z,-2.80
2023-03-05T02:09:43.548Z,-2.80
2023-03-05T02:12:15.487Z,-2.90
2023-03-05T02:14:49.046Z,-2.90
2023-03-05T02:17:20.931Z,-2.90
2023-03-05T02:19:54.992Z,-2.90
2023-03-05T02:22:26.803Z,-2.90
2023-03-05T02:24:58.658Z,-2.90
2023-03-05T02:27:34.951Z,-2.90
2023-03-05T02:30:07.087Z,-2.80
2023-03-05T02:32:38.904Z,-2.80
2023-03-05T02:35:13.365Z,-2.80
2023-03-05T02:37:45.401Z,-2.80
2023-03-05T02:40:17.774Z,-2.80
2023-03-05T02:42:49.762Z,-2.70
2023-03-05T02:45:21.700Z,-2.70
2023-03-05T02:47:55.252Z,-2.70
2023-03-05T02:50:27.878Z,-2.70
2023-03-05T02:52:59.687Z,-2.70
2023-03-05T02:55:33.927Z,-2.70
2023-03-05T02:58:05.788Z,-2.70
2023-03-05T03:00:37.687Z,-2.60
2023-03-05T03:03:09.661Z,-2.70
2023-03-05T03:05:41.843Z,-2.70
2023-03-05T03:08:13.750Z,-2.70
2023-03-05T03:10:45.658Z,-2.70
2023-03-05T03:13:19.513Z,-2.70
2023-03-05T03:15:51.419Z,-2.60
2023-03-05T03:18:24.389Z,-2.60
2023-03-05T03:20:58.641Z,-2.60
2023-03-05T03:23:30.508Z,-2.50
2023-03-05T03:26:02.376Z,-2.50
2023-03-05T03:28:34.148Z,-2.50
2023-03-05T03:31:06.094Z,-2.40
2023-03-05T03:33:40.492Z,-2.40
2023-03-05T03:36:12.995Z,-2.30
2023-03-05T03:38:44.853Z,-2.20
2023-03-05T03:41:16.669Z,-2.20
2023-03-05T03:43:48.545Z,-2.10
2023-03-05T03:46:20.457Z,-2.10
2023-03-05T03:48:52.417Z,-2.10
2023-03-05T03:51:24.596Z,-2.10
2023-03-05T03:53:56.467Z,-2.10
2023-03-05T03:56:28.457Z,-2.20
2023-03-05T03:59:00.252Z,-2.20
2023-03-05T04:01:32.122Z,-2.30
2023-03-05T04:04:04.358Z,-2.40
2023-03-05T04:06:38.928Z,-2.40
2023-03-05T04:09:10.715Z,-2.50
2023-03-05T04:11:42.542Z,-2.60
2023-03-05T04:14:14.393Z,-2.60
2023-03-05T04:16:46.298Z,-2.60
2023-03-05T04:19:18.167Z,-2.70
2023-03-05T04:21:50.045Z,-2.70
2023-03-05T04:24:21.933Z,-2.80
2023-03-05T04:26:53.986Z,-2.80
2023-03-05T04:29:26.221Z,-2.90
2023-03-05T04:31:58.085Z,-3.00
2023-03-05T04:34:29.898Z,-3.00
2023-03-05T04:37:01.746Z,-3.10
2023-03-05T04:39:33.580Z,-3.10
2023-03-05T04:42:05.530Z,-3.20
2023-03-05T04:44:37.361Z,-3.20
2023-03-05T04:47:09.169Z,-3.20
2023-03-05T04:49:40.946Z,-3.20
2023-03-05T04:52:13.360Z,-3.20
2023-03-05T04:54:45.695Z,-3.30
2023-03-05T04:57:17.931Z,-3.30
2023-03-05T04:59:49.691Z,-3.30
2023-03-05T05:02:21.504Z,-3.30
2023-03-05T05:04:53.623Z,-3.40
2023-03-05T05:07:25.550Z,-3.40
2023-03-05T05:09:57.330Z,-3.40
2023-03-05T05:12:30.595Z,-3.40
2023-03-05T05:15:02.988Z,-3.40
2023-03-05T05:17:35.212Z,-3.40
2023-03-05T05:20:07.956Z,-3.50
2023-03-05T05:22:40.026Z,-3.50
2023-03-05T05:25:14.313Z,-3.50
2023-03-05T05:27:46.209Z,-3.50
2023-03-05T05:30:18.005Z,-3.60
2023-03-05T05:32:49.861Z,-3.50
2023-03-05T05:35:21.764Z,-3.50
2023-03-05T05:37:53.682Z,-3.50
2023-03-05T05:40:25.538Z,-3.50
2023-03-05T05:42:57.373Z,-3.50
2023-03-05T05:45:29.205Z,-3.50
2023-03-05T05:48:01.080Z,-3.40
2023-03-05T05:50:32.898Z,-3.40
2023-03-05T05:53:04.736Z,-3.40
2023-03-05T05:55:39.694Z,-3.40
2023-03-05T05:58:11.498Z,-3.30
2023-03-05T06:00:45.732Z,-3.20
2023-03-05T06:03:17.584Z,-3.10
2023-03-05T06:05:49.493Z,-3.10
2023-03-05T06:08:21.308Z,-3.00
2023-03-05T06:10:56.196Z,-3.00
2023-03-05T06:13:27.972Z,-3.00
2023-03-05T06:16:00.514Z,-2.90
2023-03-05T06:18:33.006Z,-2.80
2023-03-05T06:21:06.287Z,-2.70
2023-03-05T06:23:38.211Z,-2.70
2023-03-05T06:26:11.347Z,-2.60
2023-03-05T06:28:43.415Z,-2.50
2023-03-05T06:31:16.929Z,-2.40
2023-03-05T06:33:49.292Z,-2.30
2023-03-05T06:36:22.354Z,-1.80
2023-03-05T06:38:54.174Z,-0.50
2023-03-05T06:41:29.984Z,1.00
2023-03-05T06:44:03.211Z,3.10
2023-03-05T06:46:37.350Z,5.50
2023-03-05T06:49:10.459Z,7.40
2023-03-05T06:51:42.509Z,8.20
2023-03-05T06:54:15.653Z,8.50
2023-03-05T06:56:47.448Z,8.90
2023-03-05T06:59:19.237Z,8.80
2023-03-05T07:01:51.064Z,8.80
2023-03-05T07:04:24.473Z,8.80
2023-03-05T07:06:59.418Z,9.00
2023-03-05T07:09:31.476Z,9.40
2023-03-05T07:12:03.300Z,9.50
2023-03-05T07:14:35.057Z,9.20
2023-03-05T07:17:07.095Z,9.20
2023-03-05T07:19:41.747Z,9.20
2023-03-05T07:22:13.501Z,9.30
2023-03-05T07:24:45.365Z,9.00
2023-03-05T07:27:19.548Z,9.20
2023-03-05T07:29:51.517Z,9.40
2023-03-05T07:32:23.372Z,9.70
2023-03-05T07:34:55.261Z,9.20
2023-03-05T07:37:27.060Z,8.20
2023-03-05T07:39:58.944Z,7.30
2023-03-05T07:42:31.047Z,6.30
2023-03-05T07:45:02.967Z,5.60
2023-03-05T07:47:35.381Z,4.90
2023-03-05T07:50:07.522Z,4.40
2023-03-05T07:52:39.282Z,4.00
2023-03-05T07:55:11.240Z,3.60
2023-03-05T07:57:43.019Z,3.30
2023-03-05T08:00:15.267Z,3.10
2023-03-05T08:02:48.103Z,3.00
2023-03-05T08:05:19.972Z,2.90
2023-03-05T08:07:51.817Z,2.90
2023-03-05T08:10:23.654Z,3.00
2023-03-05T08:12:55.515Z,3.00
2023-03-05T08:15:27.404Z,2.90
2023-03-05T08:17:59.294Z,2.80
2023-03-05T08:20:31.288Z,2.90
2023-03-05T08:23:03.449Z,2.90
2023-03-05T08:25:35.414Z,2.80
2023-03-05T08:28:07.186Z,2.60
2023-03-05T08:30:43.100Z,2.50
2023-03-05T08:33:15.606Z,2.50
2023-03-05T08:35:47.567Z,2.50
2023-03-05T08:38:21.831Z,2.60
2023-03-05T08:40:53.704Z,2.60
2023-03-05T08:43:25.603Z,2.60
2023-03-05T08:45:57.679Z,2.30
2023-03-05T08:48:31.810Z,2.40
2023-03-05T08:51:11.096Z,2.60
2023-03-05T08:53:43.302Z,2.60
2023-03-05T08:56:15.664Z,2.70
2023-03-05T08:58:48.246Z,2.60
2023-03-05T09:01:20.266Z,2.70
2023-03-05T09:03:52.165Z,2.70
2023-03-05T09:06:24.057Z,2.70
2023-03-05T09:08:55.877Z,2.80
2023-03-05T09:11:27.756Z,3.10
2023-03-05T09:13:59.571Z,3.10
2023-03-05T09:16:31.576Z,3.20
2023-03-05T09:19:03.441Z,3.00
2023-03-05T09:21:35.321Z,2.40
2023-03-05T09:24:07.278Z,2.10
2023-03-05T09:26:41.091Z,2.00
2023-03-05T09:29:12.893Z,2.10
2023-03-05T09:31:44.810Z,2.20
2023-03-05T09:34:16.700Z,2.50
2023-03-05T09:36:48.639Z,2.70
2023-03-05T09:39:20.406Z,2.80
2023-03-05T09:41:52.213Z,2.80
2023-03-05T09:44:41.641Z,2.90
2023-03-05T09:47:22.469Z,2.90
2023-03-05T09:50:00.439Z,2.90
2023-03-05T09:52:45.417Z,2.80
2023-03-05T09:55:29.527Z,2.70
2023-03-05T09:58:06.948Z,2.60
2023-03-05T10:01:02.122Z,2.60
2023-03-05T10:03:37.039Z,2.50
2023-03-05T10:06:20.516Z,2.50
2023-03-05T10:08:52.270Z,2.40
2023-03-05T10:11:42.434Z,2.50
2023-03-05T10:14:16.516Z,2.60
2023-03-05T10:17:06.833Z,2.70
2023-03-05T10:19:50.765Z,2.80
2023-03-05T10:22:29.851Z,2.80
2023-03-05T10:25:07.467Z,2.60
2023-03-05T10:27:39.245Z,2.60
2023-03-05T10:30:39.624Z,2.60
2023-03-05T10:33:11.371Z,2.50
2023-03-05T10:36:12.624Z,2.60
2023-03-05T10:38:51.139Z,2.60
2023-03-05T10:41:22.953Z,2.60
2023-03-05T10:44:00.597Z,2.70
2023-03-05T10:46:36.773Z,2.70
2023-03-05T10:49:16.870Z,2.90
2023-03-05T10:51:52.287Z,3.10
2023-03-05T10:54:29.822Z,3.10
2023-03-05T10:57:16.360Z,3.10
2023-03-05T10:59:50.227Z,3.30
2023-03-05T11:02:22.628Z,3.50
2023-03-05T11:04:54.951Z,3.60
2023-03-05T11:07:26.731Z,3.70
2023-03-05T11:10:04.572Z,3.50
2023-03-05T11:12:37.901Z,3.40
2023-03-05T11:15:09.716Z,3.10
2023-03-05T11:17:44.766Z,3.10
2023-03-05T11:20:40.010Z,3.20
2023-03-05T11:23:24.151Z,3.50
2023-03-05T11:25:56.274Z,3.60
2023-03-05T11:28:34.074Z,3.60
2023-03-05T11:31:18.445Z,3.60
2023-03-05T11:33:56.293Z,3.30
2023-03-05T11:36:35.664Z,3.20
2023-03-05T11:39:10.713Z,3.30
2023-03-05T11:41:44.354Z,3.50
2023-03-05T11:44:20.934Z,3.70
2023-03-05T11:46:57.246Z,3.90
2023-03-05T11:49:32.025Z,3.90
2023-03-05T11:52:20.311Z,4.10
2023-03-05T11:54:52.066Z,4.30
2023-03-05T11:57:24.751Z,4.20
2023-03-05T11:59:58.410Z,4.20
2023-03-05T12:02:30.333Z,4.30
2023-03-05T12:05:04.144Z,4.40
2023-03-05T12:07:38.029Z,4.50
2023-03-05T12:10:36.170Z,4.50
2023-03-05T12:13:15.453Z,4.50
2023-03-05T12:15:50.399Z,3.80
2023-03-05T12:18:27.628Z,3.60
2023-03-05T12:21:04.464Z,3.50
2023-03-05T12:23:48.938Z,3.60
2023-03-05T12:26:40.811Z,3.70
2023-03-05T12:29:31.485Z,3.70
2023-03-05T12:32:23.384Z,3.90
2023-03-05T12:35:04.422Z,3.90
2023-03-05T12:37:45.470Z,3.70
2023-03-05T12:40:21.594Z,3.70
2023-03-05T12:42:53.500Z,3.50
2023-03-05T12:45:26.830Z,3.40
2023-03-05T12:47:58.636Z,3.40
2023-03-05T12:50:30.431Z,3.50
2023-03-05T12:53:11.525Z,3.40
2023-03-05T12:55:45.481Z,3.40
2023-03-05T12:58:19.457Z,3.30
2023-03-05T13:01:10.170Z,3.40
2023-03-05T13:03:44.781Z,3.40
2023-03-05T13:06:30.167Z,3.40
2023-03-05T13:09:04.490Z,3.50
2023-03-05T13:11:39.152Z,3.50
2023-03-05T13:14:37.771Z,3.50
2023-03-05T13:17:27.015Z,3.70
2023-03-05T13:19:59.578Z,3.80
2023-03-05T13:22:31.514Z,3.80
2023-03-05T13:25:14.078Z,3.70
2023-03-05T13:27:45.936Z,3.60
2023-03-05T13:30:22.594Z,3.60
2023-03-05T13:33:04.505Z,3.40
2023-03-05T13:35:44.061Z,3.40
2023-03-05T13:38:36.152Z,3.30
2023-03-05T13:41:10.678Z,3.20
2023-03-05T13:43:43.966Z,3.10
2023-03-05T13:46:25.957Z,3.00
2023-03-05T13:48:58.712Z,2.90
2023-03-05T13:51:47.239Z,3.00
2023-03-05T13:54:19.490Z,3.40
2023-03-05T13:56:55.012Z,4.60
2023-03-05T13:59:29.602Z,5.30
2023-03-05T14:02:05.770Z,5.20
2023-03-05T14:04:41.349Z,5.30
2023-03-05T14:07:26.911Z,5.20
2023-03-05T14:09:59.985Z,4.60
2023-03-05T14:12:37.968Z,3.80
2023-03-05T14:15:25.964Z,3.60
2023-03-05T14:18:13.159Z,3.40
2023-03-05T14:21:00.245Z,3.20
2023-03-05T14:23:32.170Z,3.10
2023-03-05T14:26:24.263Z,2.90
2023-03-05T14:29:04.052Z,2.70
2023-03-05T14:31:47.249Z,2.60
2023-03-05T14:34:30.716Z,2.60
2023-03-05T14:37:04.502Z,2.50
2023-03-05T14:39:39.534Z,2.50
2023-03-05T14:42:28.805Z,2.50
2023-03-05T14:45:01.847Z,2.50
2023-03-05T14:47:33.796Z,2.50
2023-03-05T14:50:09.159Z,2.50
2023-03-05T14:52:41.104Z,2.40
2023-03-05T14:55:16.947Z,2.50
2023-03-05T14:57:51.587Z,2.50
2023-03-05T15:00:28.688Z,2.50
2023-03-05T15:03:00.907Z,2.40
2023-03-05T15:05:34.038Z,2.40
2023-03-05T15:08:08.426Z,2.40
2023-03-05T15:10:40.479Z,2.30
2023-03-05T15:13:13.543Z,2.20
2023-03-05T15:15:48.274Z,2.20
2023-03-05T15:18:20.852Z,2.20
2023-03-05T15:20:53.163Z,2.10
2023-03-05T15:23:25.123Z,2.10
2023-03-05T15:25:58.166Z,2.10
2023-03-05T15:28:32.766Z,2.00
2023-03-05T15:31:04.937Z,2.00
2023-03-05T15:33:36.817Z,1.90
2023-03-05T15:36:09.865Z,1.80
2023-03-05T15:38:41.907Z,1.80
2023-03-05T15:41:13.774Z,1.70
2023-03-05T15:43:45.578Z,1.60
2023-03-05T15:46:17.540Z,1.50
2023-03-05T15:48:50.378Z,1.40
2023-03-05T15:51:22.779Z,1.30
2023-03-05T15:53:55.060Z,1.30
2023-03-05T15:56:26.897Z,1.20
2023-03-05T15:58:58.800Z,1.10
2023-03-05T16:01:30.690Z,1.10
2023-03-05T16:04:02.748Z,1.00
2023-03-05T16:06:34.685Z,0.90
2023-03-05T16:09:09.166Z,0.90
2023-03-05T16:11:46.766Z,0.80
2023-03-05T16:14:23.562Z,0.70
2023-03-05T16:16:55.668Z,0.70
2023-03-05T16:19:27.845Z,0.60
2023-03-05T16:21:59.637Z,0.50
2023-03-05T16:27:22.518Z,0.40
2023-03-05T16:29:54.336Z,0.30
2023-03-05T16:32:26.456Z,0.30
2023-03-05T16:34:58.580Z,0.20
2023-03-05T16:37:30.376Z,0.20
2023-03-05T16:40:02.302Z,0.10
2023-03-05T16:42:34.228Z,0.10
2023-03-05T16:45:06.757Z,0.00
2023-03-05T16:47:39.000Z,0.00
2023-03-05T16:50:11.990Z,-0.10
2023-03-05T16:52:43.859Z,-0.20
2023-03-05T16:55:18.026Z,-0.20
2023-03-05T16:57:50.995Z,-0.30
2023-03-05T17:00:24.841Z,-0.30
2023-03-05T17:02:59.688Z,-0.40
2023-03-05T17:05:35.374Z,-0.50
2023-03-05T17:08:07.829Z,-0.50
2023-03-05T17:10:39.762Z,-0.60
2023-03-05T17:13:11.550Z,-0.60
2023-03-05T17:18:20.777Z,-0.70
2023-03-05T17:20:54.151Z,-0.80
2023-03-05T17:23:26.042Z,-0.80
2023-03-05T17:25:57.898Z,-0.80
2023-03-05T17:28:29.705Z,-0.80
2023-03-05T17:31:01.827Z,-0.90
2023-03-05T17:33:34.307Z,-0.90
2023-03-05T17:36:06.344Z,-0.90
2023-03-05T17:38:38.260Z,-0.90
2023-03-05T17:41:10.566Z,-1.00
2023-03-05T17:43:45.780Z,-1.00
2023-03-05T17:46:17.683Z,-1.00
2023-03-05T17:48:49.499Z,-1.00
2023-03-05T17:51:21.904Z,-1.00
2023-03-05T17:54:00.825Z,-1.00
2023-03-05T17:56:36.161Z,-1.00
2023-03-05T17:59:10.832Z,-1.00
2023-03-05T18:01:42.652Z,-1.00
2023-03-05T18:04:15.404Z,-1.00
2023-03-05T18:06:47.306Z,-1.00
2023-03-05T18:09:19.369Z,-1.00
2023-03-05T18:11:51.860Z,-1.00
2023-03-05T18:14:25.104Z,-1.00
2023-03-05T18:16:59.231Z,-1.00
2023-03-05T18:19:31.180Z,-1.00
2023-03-05T18:22:03.257Z,-1.00
2023-03-05T18:24:38.206Z,-1.10
2023-03-05T18:27:10.132Z,-1.00
2023-03-05T18:29:41.968Z,-1.10
2023-03-05T18:32:13.869Z,-1.10
2023-03-05T18:34:45.971Z,-1.10
2023-03-05T18:37:20.410Z,-1.10
2023-03-05T18:39:52.296Z,-1.10
2023-03-05T18:42:26.743Z,-1.10
2023-03-05T18:44:58.625Z,-1.10
2023-03-05T18:47:33.445Z,-1.20
2023-03-05T18:50:06.322Z,-1.20
2023-03-05T18:52:38.264Z,-1.20
2023-03-05T18:55:16.916Z,-1.20
2023-03-05T18:57:51.985Z,-1.20
2023-03-05T19:00:28.327Z,-1.20
2023-03-05T19:03:03.783Z,-1.20
2023-03-05T19:05:36.623Z,-1.20
2023-03-05T19:08:10.281Z,-1.30
2023-03-05T19:10:42.356Z,-1.30
2023-03-05T19:13:41.556Z,-1.30
2023-03-05T19:16:15.720Z,-1.30
2023-03-05T19:19:03.055Z,-1.20
2023-03-05T19:21:35.215Z,-1.30
2023-03-05T19:24:11.729Z,-1.30
2023-03-05T19:26:44.051Z,-1.30
2023-03-05T19:29:16.668Z,-1.30
2023-03-05T19:31:49.538Z,-1.30
2023-03-05T19:34:21.824Z,-1.30
2023-03-05T19:36:53.690Z,-1.30
2023-03-05T19:39:25.606Z,-1.30
2023-03-05T19:41:59.713Z,-1.30
2023-03-05T19:44:35.298Z,-1.30
2023-03-05T19:47:10.062Z,-1.30
2023-03-05T19:49:48.755Z,-1.30
2023-03-05T19:52:20.639Z,-1.30
2023-03-05T19:54:55.623Z,-1.30
2023-03-05T19:57:29.981Z,-1.30
2023-03-05T20:00:04.370Z,-1.30
2023-03-05T20:02:39.547Z,-1.40
2023-03-05T20:05:11.426Z,-1.40
2023-03-05T20:07:43.538Z,-1.50
2023-03-05T20:10:15.402Z,-1.50
2023-03-05T20:12:48.844Z,-1.50
2023-03-05T20:15:29.208Z,-1.50
2023-03-05T20:18:02.176Z,-1.50
2023-03-05T20:20:34.102Z,-1.50
2023-03-05T20:23:08.465Z,-1.50
2023-03-05T20:25:40.355Z,-1.60
2023-03-05T20:28:12.263Z,-1.60
2023-03-05T20:30:44.200Z,-1.60
2023-03-05T20:33:16.072Z,-1.60
2023-03-05T20:35:48.044Z,-1.60
2023-03-05T20:38:29.682Z,-1.60
2023-03-05T20:41:02.860Z,-1.60
2023-03-05T20:43:36.020Z,-1.70
2023-03-05T20:46:14.710Z,-1.70
2023-03-05T20:48:48.227Z,-1.70
2023-03-05T20:51:22.814Z,-1.80
2023-03-05T20:54:00.399Z,-1.80
2023-03-05T20:56:33.489Z,-1.80
2023-03-05T20:59:07.725Z,-1.80
2023-03-05T21:01:40.328Z,-1.80
2023-03-05T21:04:12.506Z,-1.90
2023-03-05T21:06:44.836Z,-1.90
2023-03-05T21:09:16.744Z,-1.90
2023-03-05T21:11:49.054Z,-1.90
2023-03-05T21:14:20.902Z,-1.90
2023-03-05T21:16:53.284Z,-1.90
2023-03-05T21:19:27.577Z,-1.90
2023-03-05T21:22:01.238Z,-1.90
2023-03-05T21:24:43.972Z,-1.90
2023-03-05T21:27:15.880Z,-1.90
2023-03-05T21:29:47.824Z,-2.00
2023-03-05T21:32:23.175Z,-2.00
2023-03-05T21:34:59.403Z,-2.00
2023-03-05T21:37:35.242Z,-2.00
2023-03-05T21:40:09.672Z,-2.10
2023-03-05T21:42:42.370Z,-2.00
2023-03-05T21:45:15.669Z,-2.10
2023-03-05T21:47:49.929Z,-2.10
2023-03-05T21:50:22.835Z,-2.10
2023-03-05T21:52:55.076Z,-2.10
2023-03-05T21:55:40.590Z,-2.10
2023-03-05T21:58:13.300Z,-2.20
2023-03-05T22:00:45.242Z,-2.20
2023-03-05T22:03:17.384Z,-2.20
2023-03-05T22:05:56.573Z,-2.20
2023-03-05T22:08:30.117Z,-2.30
2023-03-05T22:11:02.985Z,-2.30
2023-03-05T22:13:34.908Z,-2.30
2023-03-05T22:16:10.453Z,-2.30
2023-03-05T22:18:42.388Z,-2.30
2023-03-05T22:21:20.725Z,-2.30
2023-03-05T22:23:54.342Z,-2.30
2023-03-05T22:26:27.109Z,-2.30
2023-03-05T22:28:58.923Z,-2.20
2023-03-05T22:31:30.729Z,-2.30
2023-03-05T22:34:02.527Z,-2.30
2023-03-05T22:36:34.394Z,-2.30
2023-03-05T22:39:06.151Z,-2.30
2023-03-05T22:41:40.204Z,-2.30
2023-03-05T22:44:14.249Z,-2.30
2023-03-05T22:46:46.085Z,-2.30
2023-03-05T22:49:18.092Z,-2.30
2023-03-05T22:51:51.946Z,-2.30
2023-03-05T22:54:23.806Z,-2.30
2023-03-05T22:56:55.563Z,-2.30
2023-03-05T22:59:28.393Z,-2.30
2023-03-05T23:02:00.221Z,-2.40
2023-03-05T23:05:00.324Z,-2.40
2023-03-05T23:07:33.290Z,-2.50
2023-03-05T23:10:07.242Z,-2.50
2023-03-05T23:12:44.568Z,-2.50
2023-03-05T23:15:19.367Z,-2.50
2023-03-05T23:17:51.390Z,-2.50
2023-03-05T23:20:27.294Z,-2.50
2023-03-05T23:22:59.224Z,-2.50
2023-03-05T23:25:32.139Z,-2.50
2023-03-05T23:28:03.991Z,-2.50
2023-03-05T23:30:39.603Z,-2.50
2023-03-05T23:33:15.316Z,-2.40
2023-03-05T23:35:53.345Z,-2.40
2023-03-05T23:38:26.263Z,-2.40
2023-03-05T23:41:01.264Z,-2.40
2023-03-05T23:43:33.205Z,-2.40
2023-03-05T23:46:09.902Z,-2.40
2023-03-05T23:48:41.775Z,-2.40
2023-03-05T23:51:13.537Z,-2.40
2023-03-05T23:53:45.374Z,-2.40
2023-03-05T23:56:17.178Z,-2.50
2023-03-05T23:58:51.429Z,-2.50
